createdAt,value
2023-08-05T14:02:37.686Z,23.37
2023-08-05T14:05:05.394Z,23.37
2023-08-05T14:07:32.585Z,23.29
2023-08-05T14:10:00.086Z,23.12
2023-08-05T14:12:27.310Z,22.93
2023-08-05T14:14:54.488Z,22.91
2023-08-05T14:17:24.188Z,22.89
2023-08-05T14:19:51.427Z,22.87
2023-08-05T14:22:19.004Z,22.91
2023-08-05T14:24:46.268Z,22.92
2023-08-05T14:27:13.485Z,22.92
2023-08-05T14:29:40.695Z,22.96
2023-08-05T14:32:08.297Z,23.00
2023-08-05T14:34:35.532Z,23.05
2023-08-05T14:37:02.669Z,23.08
2023-08-05T14:39:29.891Z,23.20
2023-08-05T14:41:57.095Z,23.31
2023-08-05T14:44:25.517Z,23.31
2023-08-05T14:46:52.899Z,23.28
2023-08-05T14:49:20.052Z,23.21
2023-08-05T14:51:47.311Z,23.13
2023-08-05T14:54:14.530Z,23.00
2023-08-05T14:56:43.048Z,22.91
2023-08-05T14:59:11.798Z,22.80
2023-08-05T15:01:39.043Z,22.80
2023-08-05T15:04:06.349Z,22.79
2023-08-05T15:06:34.166Z,22.81
2023-08-05T15:09:01.446Z,22.73
2023-08-05T15:11:28.739Z,22.69
2023-08-05T15:13:55.960Z,22.71
2023-08-05T15:16:23.230Z,22.82
2023-08-05T15:18:50.584Z,23.01
2023-08-05T15:21:17.813Z,23.14
2023-08-05T15:23:45.013Z,23.25
2023-08-05T15:26:12.276Z,23.33
2023-08-05T15:28:39.968Z,23.30
2023-08-05T15:31:07.356Z,23.27
2023-08-05T15:33:34.606Z,23.24
2023-08-05T15:36:01.899Z,23.23
2023-08-05T15:38:29.072Z,23.18
2023-08-05T15:40:59.906Z,23.15
2023-08-05T15:43:27.280Z,23.19
2023-08-05T15:45:56.564Z,23.18
2023-08-05T15:48:24.061Z,23.19
2023-08-05T15:50:51.284Z,23.17
2023-08-05T15:53:18.653Z,23.07
2023-08-05T15:55:45.991Z,23.07
2023-08-05T15:58:13.196Z,23.08
2023-08-05T16:00:40.931Z,23.13
2023-08-05T16:03:08.240Z,23.10
2023-08-05T16:05:35.457Z,23.10
2023-08-05T16:08:02.676Z,23.06
2023-08-05T16:10:29.824Z,22.93
2023-08-05T16:12:58.534Z,22.83
2023-08-05T16:15:26.218Z,22.74
2023-08-05T16:17:53.606Z,22.64
2023-08-05T16:20:20.801Z,22.55
2023-08-05T16:22:48.102Z,22.39
2023-08-05T16:25:16.027Z,22.28
2023-08-05T16:27:43.347Z,22.18
2023-08-05T16:30:11.075Z,22.11
2023-08-05T16:32:40.391Z,22.03
2023-08-05T16:35:07.906Z,21.96
2023-08-05T16:37:35.099Z,21.92
2023-08-05T16:40:02.254Z,21.84
2023-08-05T16:42:29.523Z,21.68
2023-08-05T16:44:56.639Z,21.62
2023-08-05T16:47:23.948Z,21.54
2023-08-05T16:49:51.135Z,21.47
2023-08-05T16:52:18.349Z,21.40
2023-08-05T16:54:47.164Z,21.36
2023-08-05T16:57:14.389Z,21.32
2023-08-05T16:59:41.668Z,21.23
2023-08-05T17:02:08.836Z,21.12
2023-08-05T17:04:36.094Z,21.06
2023-08-05T17:07:03.459Z,21.02
2023-08-05T17:09:30.685Z,20.95
2023-08-05T17:11:57.918Z,20.90
2023-08-05T17:14:25.118Z,20.85
2023-08-05T17:16:52.326Z,20.81
2023-08-05T17:19:19.673Z,20.77
2023-08-05T17:21:47.236Z,20.72
2023-08-05T17:24:14.461Z,20.65
2023-08-05T17:26:41.703Z,20.58
2023-08-05T17:29:09.020Z,20.57
2023-08-05T17:31:36.311Z,20.53
2023-08-05T17:34:03.585Z,20.46
2023-08-05T17:36:30.775Z,20.44
2023-08-05T17:38:57.959Z,20.41
2023-08-05T17:41:25.187Z,20.34
2023-08-05T17:43:52.386Z,20.27
2023-08-05T17:46:19.713Z,20.24
2023-08-05T17:48:46.943Z,20.22
2023-08-05T17:51:14.160Z,20.19
2023-08-05T17:53:41.318Z,20.16
2023-08-05T17:56:08.662Z,20.13
2023-08-05T17:58:36.030Z,20.08
2023-08-05T18:01:03.320Z,20.04
2023-08-05T18:03:30.594Z,19.98
2023-08-05T18:06:15.654Z,19.93
2023-08-05T18:08:46.435Z,19.87
2023-08-05T18:11:14.748Z,19.81
2023-08-05T18:13:45.202Z,19.75
2023-08-05T18:16:12.995Z,19.68
2023-08-05T18:18:40.373Z,19.64
2023-08-05T18:21:09.469Z,19.60
2023-08-05T18:23:36.695Z,19.55
2023-08-05T18:26:04.601Z,19.51
2023-08-05T18:28:32.017Z,19.44
2023-08-05T18:30:59.451Z,19.38
2023-08-05T18:33:26.892Z,19.35
2023-08-05T18:35:54.605Z,19.32
2023-08-05T18:38:22.058Z,19.29
2023-08-05T18:40:49.387Z,19.27
2023-08-05T18:43:18.160Z,19.25
2023-08-05T18:45:45.505Z,19.20
2023-08-05T18:48:13.145Z,19.19
2023-08-05T18:50:40.408Z,19.15
2023-08-05T18:53:08.232Z,19.11
2023-08-05T18:55:36.412Z,19.07
2023-08-05T18:58:03.763Z,19.04
2023-08-05T19:00:31.117Z,19.01
2023-08-05T19:02:58.349Z,18.98
2023-08-05T19:05:25.696Z,18.98
2023-08-05T19:07:52.916Z,18.96
2023-08-05T19:10:20.325Z,18.94
2023-08-05T19:12:47.547Z,18.90
2023-08-05T19:15:14.860Z,18.87
2023-08-05T19:17:42.141Z,18.83
2023-08-05T19:20:09.962Z,18.80
2023-08-05T19:22:37.198Z,18.77
2023-08-05T19:25:05.142Z,18.74
2023-08-05T19:27:44.065Z,18.73
2023-08-05T19:30:15.950Z,18.71
2023-08-05T19:32:43.608Z,18.69
2023-08-05T19:35:10.916Z,18.69
2023-08-05T19:37:38.071Z,18.67
2023-08-05T19:40:05.744Z,18.65
2023-08-05T19:42:34.628Z,18.66
2023-08-05T19:45:01.917Z,18.66
2023-08-05T19:47:29.335Z,18.65
2023-08-05T19:49:56.649Z,18.63
2023-08-05T19:52:23.941Z,18.61
2023-08-05T19:54:51.193Z,18.59
2023-08-05T19:57:18.389Z,18.58
2023-08-05T19:59:45.680Z,18.57
2023-08-05T20:02:12.996Z,18.55
2023-08-05T20:04:40.289Z,18.54
2023-08-05T20:07:07.489Z,18.52
2023-08-05T20:09:34.777Z,18.50
2023-08-05T20:12:02.391Z,18.47
2023-08-05T20:14:29.620Z,18.43
2023-08-05T20:16:56.978Z,18.40
2023-08-05T20:19:24.213Z,18.37
2023-08-05T20:21:51.851Z,18.36
2023-08-05T20:24:19.815Z,18.33
2023-08-05T20:26:48.269Z,18.31
2023-08-05T20:29:15.513Z,18.30
2023-08-05T20:31:42.890Z,18.29
2023-08-05T20:34:10.041Z,18.28
2023-08-05T20:36:37.533Z,18.25
2023-08-05T20:39:05.848Z,18.23
2023-08-05T20:41:33.085Z,18.21
2023-08-05T20:44:00.312Z,18.20
2023-08-05T20:46:29.674Z,18.18
2023-08-05T20:48:57.051Z,18.16
2023-08-05T20:51:26.162Z,18.12
2023-08-05T20:53:53.410Z,18.13
2023-08-05T20:56:20.609Z,18.12
2023-08-05T20:58:47.958Z,18.09
2023-08-05T21:01:15.286Z,18.07
2023-08-05T21:03:42.576Z,18.07
2023-08-05T21:06:09.947Z,18.05
2023-08-05T21:08:37.554Z,18.04
2023-08-05T21:11:07.957Z,18.02
2023-08-05T21:13:36.439Z,18.02
2023-08-05T21:16:04.537Z,18.00
2023-08-05T21:18:33.661Z,17.99
2023-08-05T21:21:01.540Z,17.98
2023-08-05T21:23:28.954Z,17.96
2023-08-05T21:25:56.325Z,17.94
2023-08-05T21:28:23.635Z,17.94
2023-08-05T21:30:51.685Z,17.93
2023-08-05T21:33:18.946Z,17.92
2023-08-05T21:35:46.977Z,17.91
2023-08-05T21:38:14.265Z,17.92
2023-08-05T21:40:46.955Z,17.90
2023-08-05T21:43:15.000Z,17.89
2023-08-05T21:45:57.229Z,17.88
2023-08-05T21:48:25.294Z,17.86
2023-08-05T21:50:52.631Z,17.83
2023-08-05T21:53:19.907Z,17.79
2023-08-05T21:55:47.596Z,17.79
2023-08-05T21:58:15.120Z,17.77
2023-08-05T22:00:42.390Z,17.75
2023-08-05T22:03:11.554Z,17.73
2023-08-05T22:05:38.890Z,17.71
2023-08-05T22:08:06.347Z,17.70
2023-08-05T22:10:33.588Z,17.68
2023-08-05T22:13:00.864Z,17.66
2023-08-05T22:15:29.125Z,17.62
2023-08-05T22:17:56.558Z,17.60
2023-08-05T22:20:23.848Z,17.57
2023-08-05T22:22:51.300Z,17.55
2023-08-05T22:25:19.311Z,17.55
2023-08-05T22:27:46.533Z,17.57
2023-08-05T22:30:13.843Z,17.57
2023-08-05T22:32:41.092Z,17.57
2023-08-05T22:35:08.341Z,17.57
2023-08-05T22:37:35.534Z,17.56
2023-08-05T22:40:04.464Z,17.57
2023-08-05T22:42:32.332Z,17.55
2023-08-05T22:44:59.631Z,17.51
2023-08-05T22:47:26.981Z,17.49
2023-08-05T22:49:54.210Z,17.49
2023-08-05T22:52:21.444Z,17.49
2023-08-05T22:54:48.737Z,17.49
2023-08-05T22:57:16.024Z,17.46
2023-08-05T22:59:43.277Z,17.45
2023-08-05T23:02:10.625Z,17.44
2023-08-05T23:04:37.843Z,17.41
2023-08-05T23:07:05.109Z,17.36
2023-08-05T23:09:32.307Z,17.35
2023-08-05T23:11:59.509Z,17.33
2023-08-05T23:14:27.626Z,17.32
2023-08-05T23:19:19.541Z,17.33
2023-08-05T23:21:46.772Z,17.34
2023-08-05T23:24:14.104Z,17.34
2023-08-05T23:26:42.341Z,17.35
2023-08-05T23:29:09.669Z,17.34
2023-08-05T23:31:36.970Z,17.33
2023-08-05T23:34:04.243Z,17.32
2023-08-05T23:36:31.419Z,17.33
2023-08-05T23:38:59.214Z,17.31
2023-08-05T23:41:26.448Z,17.31
2023-08-05T23:43:53.847Z,17.31
2023-08-05T23:46:21.173Z,17.31
2023-08-05T23:48:48.519Z,17.31
2023-08-05T23:51:15.740Z,17.30
2023-08-05T23:53:42.930Z,17.30
2023-08-05T23:56:10.247Z,17.29
2023-08-05T23:58:37.556Z,17.30
